createdAt,value
2023-01-19T00:01:46.246Z,15.03
2023-01-19T00:04:14.527Z,14.97
2023-01-19T00:06:42.821Z,12.03
2023-01-19T00:09:11.053Z,10.80
2023-01-19T00:11:39.439Z,13.17
2023-01-19T00:14:07.625Z,15.23
2023-01-19T00:16:37.160Z,11.37
2023-01-19T00:19:05.598Z,12.90
2023-01-19T00:21:33.880Z,12.80
2023-01-19T00:24:02.034Z,11.83
2023-01-19T00:26:30.500Z,12.67
2023-01-19T00:28:59.063Z,12.40
2023-01-19T00:31:30.007Z,12.73
2023-01-19T00:33:59.791Z,10.17
2023-01-19T00:36:28.139Z,10.90
2023-01-19T00:38:56.313Z,12.90
2023-01-19T00:41:44.986Z,13.87
2023-01-19T00:44:12.560Z,14.03
2023-01-19T00:46:40.691Z,11.23
2023-01-19T00:49:10.329Z,13.00
2023-01-19T00:51:38.577Z,11.70
2023-01-19T00:54:10.438Z,11.10
2023-01-19T00:56:38.917Z,10.37
2023-01-19T00:59:07.082Z,12.27
2023-01-19T01:01:45.393Z,12.20
2023-01-19T01:04:16.140Z,12.57
2023-01-19T01:06:44.472Z,9.67
2023-01-19T01:09:12.820Z,11.53
2023-01-19T01:11:41.248Z,11.40
2023-01-19T01:14:10.425Z,10.53
2023-01-19T01:16:39.687Z,10.50
2023-01-19T01:19:08.655Z,10.60
2023-01-19T01:21:39.652Z,11.03
2023-01-19T01:24:09.022Z,10.63
2023-01-19T01:26:37.311Z,10.00
2023-01-19T01:29:06.543Z,11.00
2023-01-19T01:31:34.852Z,9.67
2023-01-19T01:34:03.330Z,10.30
2023-01-19T01:36:33.406Z,9.53
2023-01-19T01:39:03.161Z,13.10
2023-01-19T01:41:32.424Z,12.35
2023-01-19T01:44:02.021Z,10.07
2023-01-19T01:46:32.132Z,9.00
2023-01-19T01:49:05.595Z,9.83
2023-01-19T01:51:39.884Z,9.00
2023-01-19T01:54:16.723Z,9.27
2023-01-19T01:56:47.651Z,10.93
2023-01-19T01:59:25.943Z,11.27
2023-01-19T02:02:13.519Z,9.27
2023-01-19T02:04:47.473Z,9.77
2023-01-19T02:07:37.592Z,9.83
2023-01-19T02:10:25.450Z,10.37
2023-01-19T02:13:11.459Z,9.13
2023-01-19T02:15:39.674Z,8.40
2023-01-19T02:18:07.969Z,9.53
2023-01-19T02:20:37.951Z,10.27
2023-01-19T02:23:15.677Z,8.93
2023-01-19T02:25:45.745Z,9.30
2023-01-19T02:28:15.505Z,10.43
2023-01-19T02:30:44.700Z,9.57
2023-01-19T02:33:12.880Z,10.00
2023-01-19T02:35:42.209Z,10.23
2023-01-19T02:38:14.536Z,9.93
2023-01-19T02:40:46.101Z,12.47
2023-01-19T02:43:16.346Z,11.17
2023-01-19T02:45:44.675Z,10.77
2023-01-19T02:48:13.067Z,11.90
2023-01-19T02:50:46.200Z,10.07
2023-01-19T02:53:39.372Z,11.03
2023-01-19T02:56:32.277Z,10.60
2023-01-19T02:59:06.278Z,10.17
2023-01-19T03:01:47.965Z,11.10
2023-01-19T03:04:29.262Z,12.90
2023-01-19T03:07:03.647Z,12.47
2023-01-19T03:09:38.449Z,9.60
2023-01-19T03:12:18.663Z,11.07
2023-01-19T03:14:49.983Z,12.83
2023-01-19T03:17:19.934Z,11.13
2023-01-19T03:19:51.611Z,11.43
2023-01-19T03:22:25.425Z,7.90
2023-01-19T03:24:57.684Z,10.30
2023-01-19T03:27:30.194Z,13.53
2023-01-19T03:30:01.184Z,11.07
2023-01-19T03:32:33.398Z,10.50
2023-01-19T03:35:04.898Z,10.03
2023-01-19T03:37:35.124Z,9.13
2023-01-19T03:40:03.410Z,11.33
2023-01-19T03:42:33.929Z,10.57
2023-01-19T03:45:03.248Z,10.77
2023-01-19T03:47:31.449Z,11.33
2023-01-19T03:50:02.798Z,11.37
2023-01-19T03:52:33.509Z,10.70
2023-01-19T03:55:03.801Z,10.57
2023-01-19T03:57:33.351Z,12.40
2023-01-19T04:00:01.625Z,11.00
2023-01-19T04:02:40.165Z,13.07
2023-01-19T04:05:09.245Z,14.97
2023-01-19T04:07:37.430Z,12.57
2023-01-19T04:10:06.501Z,12.20
2023-01-19T04:12:36.239Z,11.90
2023-01-19T04:15:04.733Z,11.40
2023-01-19T04:17:33.005Z,9.90
2023-01-19T04:20:01.488Z,15.03
2023-01-19T04:22:29.669Z,14.23
2023-01-19T04:24:57.848Z,13.07
2023-01-19T04:27:26.114Z,13.03
2023-01-19T04:29:55.604Z,14.47
2023-01-19T04:32:23.816Z,11.83
2023-01-19T04:34:52.072Z,13.37
2023-01-19T04:37:20.206Z,14.40
2023-01-19T04:39:48.666Z,12.97
2023-01-19T04:42:16.869Z,12.37
2023-01-19T04:44:45.055Z,12.83
2023-01-19T04:47:14.555Z,14.40
2023-01-19T04:49:42.803Z,13.63
2023-01-19T04:52:11.084Z,16.57
2023-01-19T04:54:39.316Z,13.60
2023-01-19T04:57:07.526Z,13.27
2023-01-19T04:59:35.676Z,15.20
2023-01-19T05:02:03.883Z,12.93
2023-01-19T05:04:33.759Z,12.33
2023-01-19T05:07:02.371Z,13.00
2023-01-19T05:09:30.610Z,16.07
2023-01-19T05:11:58.731Z,12.00
2023-01-19T05:14:27.147Z,16.87
2023-01-19T05:16:55.453Z,12.87
2023-01-19T05:19:23.724Z,12.87
2023-01-19T05:21:54.521Z,13.80
2023-01-19T05:24:22.726Z,13.33
2023-01-19T05:26:51.095Z,13.67
2023-01-19T05:29:19.394Z,12.73
2023-01-19T05:31:47.601Z,13.73
2023-01-19T05:34:16.143Z,13.07
2023-01-19T05:36:47.479Z,14.83
2023-01-19T05:39:17.315Z,13.17
2023-01-19T05:41:45.791Z,14.67
2023-01-19T05:44:14.810Z,12.43
2023-01-19T05:46:43.065Z,12.63
2023-01-19T05:49:12.940Z,12.13
2023-01-19T05:51:45.276Z,12.93
2023-01-19T05:54:16.496Z,13.80
2023-01-19T05:56:44.997Z,12.27
2023-01-19T05:59:13.335Z,12.20
2023-01-19T06:01:41.837Z,13.17
2023-01-19T06:04:10.109Z,12.47
2023-01-19T06:06:38.275Z,13.63
2023-01-19T06:09:07.799Z,10.77
2023-01-19T06:11:37.235Z,13.10
2023-01-19T06:14:05.503Z,12.00
2023-01-19T06:16:33.741Z,11.77
2023-01-19T06:19:02.367Z,15.50
2023-01-19T06:21:30.618Z,12.50
2023-01-19T06:23:59.196Z,10.77
2023-01-19T06:26:27.413Z,11.90
2023-01-19T06:28:57.183Z,11.33
2023-01-19T06:31:25.362Z,13.90
2023-01-19T06:33:53.533Z,12.53
2023-01-19T06:36:23.906Z,17.33
2023-01-19T06:38:53.129Z,14.90
2023-01-19T06:41:21.227Z,10.43
2023-01-19T06:43:49.466Z,13.10
2023-01-19T06:46:18.967Z,10.83
2023-01-19T06:48:48.027Z,11.90
2023-01-19T06:51:16.252Z,14.30
2023-01-19T06:53:44.412Z,12.73
2023-01-19T06:56:12.652Z,11.07
2023-01-19T06:58:42.636Z,11.87
2023-01-19T07:01:11.645Z,11.80
2023-01-19T07:03:41.284Z,11.70
2023-01-19T07:06:10.267Z,12.23
2023-01-19T07:08:40.006Z,11.77
2023-01-19T07:11:22.211Z,12.70
2023-01-19T07:13:58.517Z,10.23
2023-01-19T07:16:26.884Z,12.07
2023-01-19T07:18:56.894Z,12.57
2023-01-19T07:21:25.852Z,11.77
2023-01-19T07:23:55.214Z,12.23
2023-01-19T07:26:25.339Z,12.50
2023-01-19T07:28:53.788Z,10.47
2023-01-19T07:31:22.266Z,10.47
2023-01-19T07:33:50.556Z,11.80
2023-01-19T07:36:20.160Z,10.90
2023-01-19T07:38:48.394Z,10.40
2023-01-19T07:41:16.676Z,10.50
2023-01-19T07:43:45.361Z,9.13
2023-01-19T07:46:13.750Z,11.07
2023-01-19T07:48:44.383Z,10.43
2023-01-19T07:51:17.866Z,9.57
2023-01-19T07:53:47.780Z,10.73
2023-01-19T07:56:16.043Z,10.40
2023-01-19T07:58:44.563Z,9.33
2023-01-19T08:01:14.322Z,9.80
2023-01-19T08:03:42.967Z,9.60
2023-01-19T08:06:18.769Z,9.70
2023-01-19T08:08:48.558Z,11.70
2023-01-19T08:11:17.558Z,10.47
2023-01-19T08:13:45.798Z,9.80
2023-01-19T08:16:14.609Z,10.57
2023-01-19T08:18:43.417Z,10.93
2023-01-19T08:21:11.600Z,10.53
2023-01-19T08:23:39.853Z,10.77
2023-01-19T08:26:27.426Z,10.97
2023-01-19T08:28:56.389Z,9.47
2023-01-19T08:31:25.874Z,10.10
2023-01-19T08:33:54.789Z,9.67
2023-01-19T08:36:26.004Z,9.67
2023-01-19T08:38:54.701Z,8.77
2023-01-19T08:41:24.483Z,9.20
2023-01-19T08:43:52.712Z,8.57
2023-01-19T08:46:21.999Z,9.57
2023-01-19T08:48:53.133Z,10.03
2023-01-19T08:51:21.484Z,9.40
2023-01-19T08:53:49.924Z,8.13
2023-01-19T08:56:20.547Z,9.57
2023-01-19T08:59:07.393Z,10.47
2023-01-19T09:01:37.759Z,7.90
2023-01-19T09:04:06.574Z,10.67
2023-01-19T09:06:34.946Z,10.57
2023-01-19T09:09:03.331Z,10.27
2023-01-19T09:11:31.830Z,9.40
2023-01-19T09:14:01.525Z,8.97
2023-01-19T09:16:29.757Z,8.67
2023-01-19T09:18:58.528Z,10.60
2023-01-19T09:21:26.941Z,8.53
2023-01-19T09:23:55.626Z,11.53
2023-01-19T09:26:24.515Z,10.50
2023-01-19T09:28:52.962Z,8.47
2023-01-19T09:31:22.592Z,10.03
2023-01-19T09:33:50.832Z,9.00
2023-01-19T09:36:18.956Z,9.97
2023-01-19T09:38:47.305Z,9.63
2023-01-19T09:41:21.912Z,10.53
2023-01-19T09:43:55.809Z,9.83
2023-01-19T09:46:31.357Z,7.60
2023-01-19T09:49:04.896Z,9.60
2023-01-19T09:51:37.302Z,8.33
2023-01-19T09:54:13.564Z,8.30
2023-01-19T09:56:42.301Z,8.63
2023-01-19T09:59:24.665Z,8.10
2023-01-19T10:02:24.623Z,8.70
2023-01-19T10:05:00.573Z,8.60
2023-01-19T10:07:41.477Z,9.00
2023-01-19T10:10:20.762Z,9.17
2023-01-19T10:13:26.731Z,8.30
2023-01-19T10:16:05.029Z,7.43
2023-01-19T10:18:47.445Z,10.30
2023-01-19T10:21:22.519Z,9.70
2023-01-19T10:23:54.675Z,8.90
2023-01-19T10:26:25.697Z,8.90
2023-01-19T10:28:58.147Z,9.90
2023-01-19T10:31:27.157Z,8.43
2023-01-19T10:33:56.786Z,8.27
2023-01-19T10:36:29.715Z,12.37
2023-01-19T10:38:59.046Z,9.60
2023-01-19T10:41:32.753Z,11.23
2023-01-19T10:44:02.961Z,9.73
2023-01-19T10:46:38.231Z,11.53
2023-01-19T10:49:08.579Z,8.87
2023-01-19T10:51:48.406Z,9.00
2023-01-19T10:54:16.896Z,9.23
2023-01-19T10:56:51.467Z,8.90
2023-01-19T10:59:33.029Z,10.93
2023-01-19T11:02:19.334Z,9.57
2023-01-19T11:04:51.378Z,8.27
2023-01-19T11:07:22.462Z,9.03
2023-01-19T11:10:11.216Z,8.73
2023-01-19T11:12:42.708Z,11.43
2023-01-19T11:15:16.670Z,11.20
2023-01-19T11:17:48.505Z,10.07
2023-01-19T11:20:23.541Z,8.40
2023-01-19T11:23:06.141Z,9.60
2023-01-19T11:25:36.711Z,8.83
2023-01-19T11:28:05.491Z,9.50
2023-01-19T11:30:35.840Z,10.47
2023-01-19T11:33:06.444Z,11.73
2023-01-19T11:35:38.594Z,9.20
2023-01-19T11:38:11.343Z,10.00
2023-01-19T11:40:41.069Z,9.27
2023-01-19T11:43:12.354Z,9.77
2023-01-19T11:45:41.255Z,10.53
2023-01-19T11:48:22.888Z,9.83
2023-01-19T11:50:52.872Z,8.77
2023-01-19T11:53:25.416Z,10.30
2023-01-19T11:55:57.860Z,11.23
2023-01-19T11:58:27.811Z,12.10
2023-01-19T12:01:01.443Z,9.83
2023-01-19T12:03:33.938Z,10.87
2023-01-19T12:06:08.575Z,11.33
2023-01-19T12:08:40.417Z,9.53
2023-01-19T12:11:11.963Z,10.00
2023-01-19T12:13:41.461Z,8.57
2023-01-19T12:16:14.582Z,10.03
2023-01-19T12:18:47.347Z,9.77
2023-01-19T12:21:17.435Z,8.23
2023-01-19T12:23:55.865Z,11.17
2023-01-19T12:26:29.287Z,8.57
2023-01-19T12:29:01.743Z,10.00
2023-01-19T12:31:30.142Z,8.97
2023-01-19T12:34:31.418Z,9.97
2023-01-19T12:37:04.921Z,10.30
2023-01-19T12:39:35.282Z,9.17
2023-01-19T12:42:12.885Z,12.13
2023-01-19T12:44:42.647Z,9.30
2023-01-19T12:47:24.140Z,9.87
2023-01-19T12:49:56.360Z,10.67
2023-01-19T12:52:34.116Z,11.27
2023-01-19T12:55:07.905Z,11.57
2023-01-19T12:57:41.955Z,9.87
2023-01-19T13:00:34.540Z,10.30
2023-01-19T13:03:05.617Z,10.13
2023-01-19T13:05:54.360Z,11.77
2023-01-19T13:08:26.676Z,8.93
2023-01-19T13:11:20.720Z,10.53
2023-01-19T13:14:26.400Z,9.97
2023-01-19T13:17:02.255Z,9.07
2023-01-19T13:19:45.453Z,9.87
2023-01-19T13:23:05.483Z,11.90
2023-01-19T13:25:36.639Z,12.07
2023-01-19T13:28:11.893Z,10.50
2023-01-19T13:30:52.318Z,9.20
2023-01-19T13:33:23.698Z,9.10
2023-01-19T13:35:54.555Z,11.03
2023-01-19T13:38:24.654Z,9.67
2023-01-19T13:40:55.774Z,9.23
2023-01-19T13:43:29.470Z,10.00
2023-01-19T13:45:58.218Z,9.40
2023-01-19T13:48:26.719Z,9.70
2023-01-19T13:51:01.041Z,8.53
2023-01-19T13:53:30.374Z,11.33
2023-01-19T13:56:20.676Z,10.40
2023-01-19T13:59:05.120Z,8.73
2023-01-19T14:01:33.622Z,9.33
2023-01-19T14:04:02.507Z,10.83
2023-01-19T14:06:37.429Z,8.97
2023-01-19T14:09:23.668Z,10.77
2023-01-19T14:12:15.134Z,10.13
2023-01-19T14:14:44.760Z,8.43
2023-01-19T14:17:23.812Z,10.40
2023-01-19T14:19:53.826Z,9.07
2023-01-19T14:22:41.683Z,8.30
2023-01-19T14:25:32.935Z,9.93
2023-01-19T14:28:30.562Z,7.13
2023-01-19T14:31:01.178Z,7.30
2023-01-19T14:33:43.698Z,6.60
2023-01-19T14:36:29.861Z,6.77
2023-01-19T14:39:00.218Z,5.40
2023-01-19T14:41:31.572Z,7.63
2023-01-19T14:44:01.847Z,5.73
2023-01-19T14:46:30.526Z,5.93
2023-01-19T14:49:03.786Z,6.50
2023-01-19T14:51:32.924Z,6.13
2023-01-19T14:54:02.560Z,5.40
2023-01-19T14:56:34.211Z,6.07
2023-01-19T14:59:10.968Z,5.47
2023-01-19T15:01:39.357Z,4.77
2023-01-19T15:04:07.690Z,4.97
2023-01-19T15:06:41.260Z,6.43
2023-01-19T15:09:12.923Z,6.27
2023-01-19T15:11:41.687Z,7.97
2023-01-19T15:14:14.646Z,5.37
2023-01-19T15:16:43.606Z,6.90
2023-01-19T15:19:16.683Z,5.60
2023-01-19T15:21:46.859Z,6.80
2023-01-19T15:24:17.800Z,4.17
2023-01-19T15:26:46.454Z,5.10
2023-01-19T15:29:23.911Z,3.87
2023-01-19T15:31:53.600Z,3.90
2023-01-19T15:34:21.787Z,6.07
2023-01-19T15:36:49.999Z,8.40
2023-01-19T15:39:18.223Z,5.40
2023-01-19T15:41:46.554Z,5.63
2023-01-19T15:44:14.715Z,5.60
2023-01-19T15:46:44.235Z,6.80
2023-01-19T15:49:12.476Z,6.83
2023-01-19T15:51:40.651Z,7.50
2023-01-19T15:54:13.760Z,7.93
2023-01-19T15:56:42.589Z,9.87
2023-01-19T15:59:10.809Z,8.93
2023-01-19T16:01:40.813Z,8.80
2023-01-19T16:04:12.157Z,10.17
2023-01-19T16:06:40.511Z,8.77
2023-01-19T16:09:08.872Z,9.27
2023-01-19T16:11:37.777Z,9.23
2023-01-19T16:14:05.975Z,10.17
2023-01-19T16:16:34.360Z,8.23
2023-01-19T16:19:02.838Z,9.73
2023-01-19T16:21:32.365Z,10.17
2023-01-19T16:24:00.691Z,9.43
2023-01-19T16:26:32.552Z,9.57
2023-01-19T16:29:02.511Z,10.37
2023-01-19T16:31:31.007Z,10.03
2023-01-19T16:33:59.412Z,11.97
2023-01-19T16:36:30.048Z,10.03
2023-01-19T16:39:01.727Z,10.07
2023-01-19T16:41:30.072Z,8.97
2023-01-19T16:43:59.136Z,10.67
2023-01-19T16:46:29.875Z,9.43
2023-01-19T16:49:01.572Z,9.37
2023-01-19T16:51:30.472Z,9.90
2023-01-19T16:54:00.183Z,11.50
2023-01-19T16:56:28.440Z,11.17
2023-01-19T16:58:57.428Z,9.50
2023-01-19T17:01:26.799Z,11.27
2023-01-19T17:03:56.081Z,9.17
2023-01-19T17:06:25.598Z,8.53
2023-01-19T17:08:54.468Z,9.17
2023-01-19T17:11:25.458Z,8.70
2023-01-19T17:13:55.717Z,11.27
2023-01-19T17:16:25.244Z,9.63
2023-01-19T17:18:53.945Z,10.33
2023-01-19T17:21:22.044Z,9.33
2023-01-19T17:23:53.534Z,10.40
2023-01-19T17:26:32.071Z,12.43
2023-01-19T17:29:00.732Z,10.27
2023-01-19T17:31:29.848Z,11.33
2023-01-19T17:33:58.125Z,9.27
2023-01-19T17:36:27.966Z,9.00
2023-01-19T17:38:58.398Z,9.17
2023-01-19T17:41:28.422Z,9.37
2023-01-19T17:43:58.854Z,8.53
2023-01-19T17:46:28.694Z,10.00
2023-01-19T17:48:58.445Z,8.47
2023-01-19T17:51:27.111Z,8.83
2023-01-19T17:53:56.821Z,10.77
2023-01-19T17:56:29.461Z,11.67
2023-01-19T17:58:59.611Z,8.20
2023-01-19T18:01:29.929Z,8.13
2023-01-19T18:03:58.980Z,8.30
2023-01-19T18:06:27.643Z,7.37
2023-01-19T18:08:55.832Z,9.57
2023-01-19T18:11:23.981Z,11.90
2023-01-19T18:13:52.357Z,9.97
2023-01-19T18:16:24.528Z,8.63
2023-01-19T18:18:54.145Z,7.97
2023-01-19T18:21:23.640Z,9.00
2023-01-19T18:23:52.158Z,10.20
2023-01-19T18:26:22.142Z,9.07
2023-01-19T18:28:50.856Z,8.93
2023-01-19T18:31:20.244Z,10.27
2023-01-19T18:33:50.873Z,10.17
2023-01-19T18:36:19.281Z,10.60
2023-01-19T18:38:47.973Z,8.60
2023-01-19T18:41:18.026Z,8.30
2023-01-19T18:43:47.203Z,8.57
2023-01-19T18:46:16.495Z,10.17
2023-01-19T18:48:45.182Z,10.00
2023-01-19T18:51:16.198Z,10.37
2023-01-19T18:53:45.340Z,10.90
2023-01-19T18:56:15.521Z,11.20
2023-01-19T18:58:44.852Z,10.63
2023-01-19T19:01:22.699Z,12.17
2023-01-19T19:03:51.294Z,10.83
2023-01-19T19:06:21.911Z,7.43
2023-01-19T19:08:51.166Z,8.33
2023-01-19T19:11:20.534Z,8.10
2023-01-19T19:13:53.920Z,10.73
2023-01-19T19:16:22.389Z,9.83
2023-01-19T19:18:50.786Z,9.60
2023-01-19T19:21:21.681Z,8.80
2023-01-19T19:23:53.874Z,7.67
2023-01-19T19:26:22.807Z,8.43
2023-01-19T19:28:51.158Z,9.27
2023-01-19T19:31:21.243Z,6.63
2023-01-19T19:33:51.088Z,8.10
2023-01-19T19:36:22.151Z,12.13
2023-01-19T19:38:50.762Z,9.33
2023-01-19T19:41:22.511Z,8.20
2023-01-19T19:43:53.650Z,7.67
2023-01-19T19:46:24.221Z,7.50
2023-01-19T19:48:53.123Z,8.00
2023-01-19T19:51:25.322Z,8.77
2023-01-19T19:53:54.493Z,8.60
2023-01-19T19:56:24.568Z,8.30
2023-01-19T19:58:56.226Z,9.00
2023-01-19T20:01:28.555Z,8.13
2023-01-19T20:03:59.923Z,9.47
2023-01-19T20:06:29.427Z,10.47
2023-01-19T20:08:57.774Z,7.60
2023-01-19T20:11:28.672Z,10.10
2023-01-19T20:13:57.240Z,8.17
2023-01-19T20:16:26.172Z,9.40
2023-01-19T20:18:55.285Z,9.97
2023-01-19T20:21:26.224Z,9.30
2023-01-19T20:23:57.282Z,8.37
2023-01-19T20:26:27.530Z,8.53
2023-01-19T20:28:59.699Z,8.60
2023-01-19T20:31:30.110Z,9.37
2023-01-19T20:34:00.583Z,8.70
2023-01-19T20:36:29.283Z,8.37
2023-01-19T20:38:59.461Z,8.67
2023-01-19T20:41:28.338Z,9.23
2023-01-19T20:43:56.641Z,7.90
2023-01-19T20:46:24.875Z,8.13
2023-01-19T20:48:54.608Z,8.17
2023-01-19T20:51:23.121Z,10.63
2023-01-19T20:53:51.372Z,9.20
2023-01-19T20:56:21.006Z,7.37
2023-01-19T20:58:49.241Z,9.13
2023-01-19T21:01:20.481Z,7.77
2023-01-19T21:03:49.186Z,10.33
2023-01-19T21:06:18.497Z,9.50
2023-01-19T21:08:49.588Z,10.60
2023-01-19T21:11:20.802Z,8.10
2023-01-19T21:13:51.451Z,8.43
2023-01-19T21:16:19.701Z,8.90
2023-01-19T21:18:48.058Z,10.00
2023-01-19T21:21:29.371Z,9.20
2023-01-19T21:24:03.428Z,9.57
2023-01-19T21:26:33.650Z,10.73
2023-01-19T21:29:04.454Z,11.73
2023-01-19T21:31:32.806Z,13.23
2023-01-19T21:34:01.329Z,10.30
2023-01-19T21:36:29.691Z,10.90
2023-01-19T21:39:00.649Z,9.03
2023-01-19T21:41:30.965Z,10.10
2023-01-19T21:44:00.802Z,10.00
2023-01-19T21:46:32.974Z,11.23
2023-01-19T21:49:03.721Z,11.47
2023-01-19T21:51:34.671Z,9.90
2023-01-19T21:54:03.300Z,11.30
2023-01-19T21:56:31.926Z,10.63
2023-01-19T21:59:02.559Z,11.40
2023-01-19T22:01:32.834Z,11.07
2023-01-19T22:04:01.338Z,12.77
2023-01-19T22:06:29.992Z,10.60
2023-01-19T22:09:00.638Z,11.57
2023-01-19T22:11:29.343Z,10.10
2023-01-19T22:13:59.661Z,11.20
2023-01-19T22:16:28.804Z,12.97
2023-01-19T22:19:01.340Z,12.07
2023-01-19T22:21:32.029Z,10.77
2023-01-19T22:24:02.244Z,11.10
2023-01-19T22:26:31.601Z,13.90
2023-01-19T22:29:01.771Z,11.43
2023-01-19T22:31:31.103Z,12.47
2023-01-19T22:34:00.866Z,14.53
2023-01-19T22:36:31.019Z,11.23
2023-01-19T22:39:01.321Z,10.50
2023-01-19T22:41:31.243Z,11.70
2023-01-19T22:44:02.345Z,10.60
2023-01-19T22:46:33.001Z,12.73
2023-01-19T22:49:03.391Z,12.10
2023-01-19T22:51:33.039Z,14.17
2023-01-19T22:54:02.003Z,11.00
2023-01-19T22:56:31.847Z,10.83
2023-01-19T22:59:02.306Z,11.17
2023-01-19T23:01:35.254Z,10.83
2023-01-19T23:04:06.527Z,11.13
2023-01-19T23:06:36.526Z,10.70
2023-01-19T23:09:07.129Z,10.50
2023-01-19T23:11:38.100Z,15.47
2023-01-19T23:14:07.613Z,10.50
2023-01-19T23:16:36.393Z,12.10
2023-01-19T23:19:06.470Z,10.73
2023-01-19T23:21:35.050Z,10.07
2023-01-19T23:24:04.719Z,13.77
2023-01-19T23:26:38.215Z,12.07
2023-01-19T23:29:09.332Z,11.87
2023-01-19T23:31:39.271Z,11.13
2023-01-19T23:34:11.161Z,10.87
2023-01-19T23:36:41.087Z,10.67
2023-01-19T23:39:14.659Z,10.87
2023-01-19T23:41:43.035Z,11.07
2023-01-19T23:44:11.410Z,11.60
2023-01-19T23:46:40.906Z,10.50
2023-01-19T23:49:10.553Z,12.37
2023-01-19T23:51:40.035Z,9.70
2023-01-19T23:54:08.719Z,11.27
2023-01-19T23:56:39.060Z,10.63
2023-01-19T23:59:09.029Z,10.80
